createdAt,value
2017-11-27T00:01:58.905Z,8.62
2017-11-27T00:04:24.924Z,8.72
2017-11-27T00:06:50.879Z,8.85
2017-11-27T00:09:16.843Z,8.68
2017-11-27T00:11:42.774Z,8.67
2017-11-27T00:14:08.699Z,8.72
2017-11-27T00:16:34.623Z,8.54
2017-11-27T00:19:00.570Z,8.61
2017-11-27T00:21:26.501Z,8.79
2017-11-27T00:23:52.452Z,8.68
2017-11-27T00:26:18.390Z,8.89
2017-11-27T00:28:44.327Z,8.90
2017-11-27T00:31:10.284Z,8.76
2017-11-27T00:33:36.218Z,8.78
2017-11-27T00:36:02.158Z,8.76
2017-11-27T00:38:28.083Z,8.58
2017-11-27T00:40:54.033Z,8.75
2017-11-27T00:43:19.980Z,8.61
2017-11-27T00:45:45.915Z,8.66
2017-11-27T00:48:11.865Z,8.70
2017-11-27T00:50:37.813Z,8.77
2017-11-27T00:53:03.815Z,8.50
2017-11-27T00:55:29.761Z,8.62
2017-11-27T00:57:55.685Z,8.61
2017-11-27T01:00:21.625Z,8.46
2017-11-27T01:02:47.576Z,8.67
2017-11-27T01:05:13.526Z,8.68
2017-11-27T01:07:39.688Z,8.62
2017-11-27T01:10:05.617Z,8.80
2017-11-27T01:12:31.547Z,8.55
2017-11-27T01:14:57.541Z,8.92
2017-11-27T01:17:23.469Z,8.66
2017-11-27T01:19:49.426Z,8.90
2017-11-27T01:22:15.366Z,8.73
2017-11-27T01:24:41.299Z,8.77
2017-11-27T01:27:07.244Z,8.76
2017-11-27T01:29:33.182Z,8.67
2017-11-27T01:31:59.133Z,8.59
2017-11-27T01:34:25.075Z,8.78
2017-11-27T01:36:51.001Z,8.71
2017-11-27T01:39:16.935Z,8.78
2017-11-27T01:41:42.873Z,8.63
2017-11-27T01:44:08.807Z,8.61
2017-11-27T01:46:34.767Z,8.75
2017-11-27T01:49:00.714Z,8.59
2017-11-27T01:51:26.642Z,8.73
2017-11-27T01:53:52.567Z,8.83
2017-11-27T01:56:18.502Z,8.81
2017-11-27T01:58:44.467Z,8.78
2017-11-27T02:01:10.401Z,8.97
2017-11-27T02:03:36.319Z,8.85
2017-11-27T02:06:02.250Z,8.74
2017-11-27T02:08:28.197Z,8.83
2017-11-27T02:10:54.149Z,8.63
2017-11-27T02:13:20.091Z,8.76
2017-11-27T02:15:46.016Z,8.74
2017-11-27T02:18:11.939Z,8.75
2017-11-27T02:20:37.875Z,8.92
2017-11-27T02:23:03.810Z,8.78
2017-11-27T02:25:29.757Z,8.77
2017-11-27T02:27:55.744Z,8.86
2017-11-27T02:30:21.695Z,8.75
2017-11-27T02:32:47.636Z,8.75
2017-11-27T02:35:13.561Z,8.86
2017-11-27T02:37:39.492Z,9.00
2017-11-27T02:40:05.471Z,8.66
2017-11-27T02:42:31.403Z,8.77
2017-11-27T02:44:57.352Z,8.71
2017-11-27T02:47:23.301Z,8.60
2017-11-27T02:49:49.222Z,8.73
2017-11-27T02:52:15.167Z,8.54
2017-11-27T02:54:41.112Z,8.71
2017-11-27T02:57:07.049Z,8.72
2017-11-27T02:59:32.973Z,8.83
2017-11-27T03:01:58.905Z,8.92
2017-11-27T03:04:24.835Z,8.69
2017-11-27T03:06:50.781Z,8.61
2017-11-27T03:09:16.718Z,8.69
2017-11-27T03:11:42.673Z,8.64
2017-11-27T03:14:08.610Z,8.71
2017-11-27T03:16:34.536Z,8.90
2017-11-27T03:19:00.512Z,8.78
2017-11-27T03:21:26.439Z,8.77
2017-11-27T03:23:52.390Z,8.86
2017-11-27T03:26:18.357Z,8.73
2017-11-27T03:28:44.289Z,8.74
2017-11-27T03:31:10.236Z,8.69
2017-11-27T03:33:36.177Z,8.84
2017-11-27T03:36:02.138Z,8.71
2017-11-27T03:38:28.125Z,8.65
2017-11-27T03:40:54.064Z,8.62
2017-11-27T03:43:19.997Z,8.70
2017-11-27T03:45:45.928Z,8.60
2017-11-27T03:48:11.851Z,8.72
2017-11-27T03:50:37.809Z,8.69
2017-11-27T03:53:03.757Z,8.76
2017-11-27T03:55:29.707Z,8.69
2017-11-27T03:57:55.643Z,8.76
2017-11-27T04:00:21.598Z,8.78
2017-11-27T04:02:47.538Z,8.59
2017-11-27T04:05:13.477Z,8.59
2017-11-27T04:07:39.421Z,8.58
2017-11-27T04:10:05.351Z,8.78
2017-11-27T04:12:31.279Z,8.78
2017-11-27T04:14:57.237Z,8.64
2017-11-27T04:17:23.180Z,8.62
2017-11-27T04:19:49.119Z,8.80
2017-11-27T04:22:15.071Z,8.85
2017-11-27T04:24:41.007Z,8.65
2017-11-27T04:27:06.973Z,8.67
2017-11-27T04:29:32.908Z,8.61
2017-11-27T04:31:58.878Z,8.57
2017-11-27T04:34:24.822Z,8.65
2017-11-27T04:36:50.757Z,8.58
2017-11-27T04:39:16.709Z,8.40
2017-11-27T04:41:42.645Z,8.52
2017-11-27T04:44:08.577Z,8.63
2017-11-27T04:46:34.514Z,8.76
2017-11-27T04:49:00.491Z,8.47
2017-11-27T04:51:26.436Z,8.42
2017-11-27T04:53:52.379Z,8.47
2017-11-27T04:56:18.307Z,8.62
2017-11-27T04:58:44.246Z,8.55
2017-11-27T05:01:10.514Z,8.42
2017-11-27T05:03:36.457Z,8.41
2017-11-27T05:06:02.387Z,8.46
2017-11-27T05:08:28.321Z,8.56
2017-11-27T05:10:54.250Z,8.41
2017-11-27T05:13:20.206Z,8.59
2017-11-27T05:15:46.157Z,8.54
2017-11-27T05:18:12.076Z,8.36
2017-11-27T05:20:38.025Z,8.45
2017-11-27T05:23:03.971Z,8.40
2017-11-27T05:25:29.909Z,8.27
2017-11-27T05:27:55.850Z,8.32
2017-11-27T05:30:21.773Z,8.29
2017-11-27T05:32:47.687Z,8.55
2017-11-27T05:35:13.615Z,8.51
2017-11-27T05:37:39.551Z,8.38
2017-11-27T05:40:05.493Z,8.45
2017-11-27T05:42:31.447Z,8.44
2017-11-27T05:44:57.396Z,8.31
2017-11-27T05:47:23.315Z,8.45
2017-11-27T05:49:49.249Z,8.30
2017-11-27T05:52:15.317Z,8.36
2017-11-27T05:54:41.257Z,8.40
2017-11-27T05:57:07.202Z,8.38
2017-11-27T05:59:33.140Z,8.14
2017-11-27T06:01:59.091Z,8.29
2017-11-27T06:04:25.058Z,8.07
2017-11-27T06:06:51.014Z,8.18
2017-11-27T06:09:16.964Z,8.07
2017-11-27T06:11:42.905Z,8.14
2017-11-27T06:14:08.866Z,8.18
2017-11-27T06:16:34.927Z,8.08
2017-11-27T06:19:00.907Z,8.18
2017-11-27T06:21:26.857Z,8.00
2017-11-27T06:23:52.791Z,8.10
2017-11-27T06:26:18.739Z,8.01
2017-11-27T06:28:44.929Z,7.99
2017-11-27T06:31:10.879Z,7.85
2017-11-27T06:33:37.017Z,7.93
2017-11-27T06:36:02.963Z,8.14
2017-11-27T06:38:28.924Z,8.04
2017-11-27T06:40:54.889Z,7.90
2017-11-27T06:43:20.814Z,7.77
2017-11-27T06:45:46.771Z,7.94
2017-11-27T06:48:12.701Z,8.00
2017-11-27T06:50:38.623Z,7.85
2017-11-27T06:53:04.576Z,7.98
2017-11-27T06:55:30.521Z,8.07
2017-11-27T06:57:56.449Z,7.93
2017-11-27T07:00:22.410Z,7.98
2017-11-27T07:02:48.354Z,7.77
2017-11-27T07:05:14.286Z,8.06
2017-11-27T07:07:40.233Z,8.05
2017-11-27T07:10:06.170Z,7.95
2017-11-27T07:12:32.244Z,8.02
2017-11-27T07:14:58.224Z,8.09
2017-11-27T07:17:24.166Z,8.02
2017-11-27T07:19:50.371Z,8.00
2017-11-27T07:22:16.309Z,8.42
2017-11-27T07:24:42.367Z,8.51
2017-11-27T07:27:08.319Z,8.53
2017-11-27T07:29:34.242Z,8.71
2017-11-27T07:32:00.183Z,8.75
2017-11-27T07:34:26.127Z,8.81
2017-11-27T07:36:52.069Z,8.68
2017-11-27T07:39:18.017Z,8.79
2017-11-27T07:41:43.949Z,8.89
2017-11-27T07:44:09.885Z,8.77
2017-11-27T07:46:35.829Z,8.93
2017-11-27T07:49:01.918Z,9.04
2017-11-27T07:51:27.919Z,9.00
2017-11-27T07:53:53.841Z,9.09
2017-11-27T07:56:19.783Z,8.96
2017-11-27T07:58:45.751Z,9.05
2017-11-27T08:01:11.716Z,9.22
2017-11-27T08:03:37.713Z,9.18
2017-11-27T08:06:03.665Z,9.44
2017-11-27T08:08:29.596Z,9.29
2017-11-27T08:10:55.521Z,9.39
2017-11-27T08:13:21.480Z,9.36
2017-11-27T08:15:47.413Z,9.67
2017-11-27T08:18:13.441Z,9.61
2017-11-27T08:20:39.367Z,9.63
2017-11-27T08:23:05.291Z,9.53
2017-11-27T08:25:31.232Z,9.67
2017-11-27T08:27:57.171Z,9.58
2017-11-27T08:30:23.139Z,9.76
2017-11-27T08:32:49.066Z,9.54
2017-11-27T08:35:15.019Z,9.71
2017-11-27T08:37:41.018Z,9.70
2017-11-27T08:40:06.967Z,9.77
2017-11-27T08:42:32.912Z,9.73
2017-11-27T08:44:58.864Z,9.67
2017-11-27T08:47:24.808Z,9.80
2017-11-27T08:49:50.749Z,9.82
2017-11-27T08:52:16.685Z,9.62
2017-11-27T08:54:42.609Z,9.55
2017-11-27T08:57:08.538Z,9.72
2017-11-27T08:59:34.467Z,9.70
2017-11-27T09:02:00.388Z,9.88
2017-11-27T09:04:26.318Z,9.81
2017-11-27T09:06:52.244Z,9.80
2017-11-27T09:09:18.192Z,10.05
2017-11-27T09:11:44.120Z,10.02
2017-11-27T09:14:10.067Z,9.83
2017-11-27T09:16:36.001Z,9.94
2017-11-27T09:19:01.918Z,9.83
2017-11-27T09:21:27.852Z,9.88
2017-11-27T09:23:53.786Z,9.80
2017-11-27T09:26:19.708Z,9.89
2017-11-27T09:28:45.636Z,9.88
2017-11-27T09:31:11.576Z,9.96
2017-11-27T09:33:37.520Z,9.86
2017-11-27T09:36:03.438Z,9.80
2017-11-27T09:38:29.381Z,9.95
2017-11-27T09:40:55.316Z,9.89
2017-11-27T09:43:21.311Z,10.02
2017-11-27T09:45:47.241Z,9.91
2017-11-27T09:48:13.176Z,9.80
2017-11-27T09:50:39.128Z,9.91
2017-11-27T09:53:05.065Z,9.83
2017-11-27T09:55:30.996Z,10.02
2017-11-27T09:57:56.951Z,9.77
2017-11-27T10:00:22.900Z,9.88
2017-11-27T10:02:48.854Z,9.85
2017-11-27T10:05:14.803Z,9.81
2017-11-27T10:07:40.740Z,9.67
2017-11-27T10:10:06.671Z,9.73
2017-11-27T10:12:32.792Z,9.77
2017-11-27T10:14:58.751Z,9.59
2017-11-27T10:17:25.406Z,9.62
2017-11-27T10:19:51.378Z,9.58
2017-11-27T10:22:17.394Z,9.56
2017-11-27T10:24:43.325Z,9.64
2017-11-27T10:27:09.268Z,9.65
2017-11-27T10:29:35.225Z,9.67
2017-11-27T10:32:01.148Z,9.75
2017-11-27T10:34:27.095Z,9.68
2017-11-27T10:36:53.029Z,9.87
2017-11-27T10:39:18.973Z,9.61
2017-11-27T10:41:44.905Z,9.69
2017-11-27T10:44:10.830Z,9.62
2017-11-27T10:46:36.785Z,9.88
2017-11-27T10:49:02.751Z,9.68
2017-11-27T10:51:28.689Z,9.70
2017-11-27T10:53:54.615Z,9.56
2017-11-27T10:56:20.612Z,9.44
2017-11-27T10:58:46.551Z,9.49
2017-11-27T11:01:12.477Z,9.74
2017-11-27T11:03:38.408Z,9.74
2017-11-27T11:06:04.353Z,9.54
2017-11-27T11:08:30.291Z,9.50
2017-11-27T11:10:56.230Z,9.60
2017-11-27T11:13:22.166Z,9.77
2017-11-27T11:15:48.099Z,9.76
2017-11-27T11:18:14.041Z,9.74
2017-11-27T11:20:39.981Z,9.72
2017-11-27T11:23:05.941Z,9.92
2017-11-27T11:25:31.867Z,9.85
2017-11-27T11:27:57.893Z,9.98
2017-11-27T11:30:23.825Z,9.88
2017-11-27T11:32:49.749Z,9.94
2017-11-27T11:35:15.735Z,9.82
2017-11-27T11:37:41.663Z,10.08
2017-11-27T11:40:07.616Z,9.97
2017-11-27T11:42:33.567Z,9.99
2017-11-27T11:44:59.504Z,9.89
2017-11-27T11:47:25.590Z,9.79
2017-11-27T11:49:51.521Z,9.83
2017-11-27T11:52:17.439Z,9.80
2017-11-27T11:54:43.379Z,9.94
2017-11-27T11:57:09.314Z,9.93
2017-11-27T11:59:35.268Z,9.91
2017-11-27T12:02:01.203Z,9.79
2017-11-27T12:04:27.135Z,9.79
2017-11-27T12:06:53.075Z,9.71
2017-11-27T12:09:19.017Z,9.95
2017-11-27T12:11:44.958Z,9.84
2017-11-27T12:14:10.939Z,9.74
2017-11-27T12:16:36.863Z,9.86
2017-11-27T12:19:02.785Z,9.74
2017-11-27T12:21:28.722Z,9.88
2017-11-27T12:23:55.013Z,9.88
2017-11-27T12:26:20.935Z,9.88
2017-11-27T12:28:46.877Z,9.93
2017-11-27T12:31:12.805Z,10.04
2017-11-27T12:33:38.741Z,9.84
2017-11-27T12:36:04.693Z,9.84
2017-11-27T12:38:30.634Z,9.86
2017-11-27T12:40:56.561Z,9.79
2017-11-27T12:43:22.485Z,9.84
2017-11-27T12:45:48.427Z,9.82
2017-11-27T12:48:14.390Z,10.02
2017-11-27T12:50:40.334Z,9.83
2017-11-27T12:53:06.273Z,9.81
2017-11-27T12:55:32.187Z,9.67
2017-11-27T12:57:58.109Z,9.76
2017-11-27T13:00:24.055Z,9.74
2017-11-27T13:02:49.997Z,10.04
2017-11-27T13:05:15.940Z,9.83
2017-11-27T13:07:41.881Z,9.82
2017-11-27T13:10:07.812Z,9.65
2017-11-27T13:12:33.751Z,9.77
2017-11-27T13:14:59.715Z,9.61
2017-11-27T13:17:25.639Z,9.64
2017-11-27T13:19:51.580Z,9.68
2017-11-27T13:22:17.522Z,9.92
2017-11-27T13:24:43.447Z,9.77
2017-11-27T13:27:09.377Z,9.57
2017-11-27T13:29:35.300Z,9.68
2017-11-27T13:32:01.333Z,9.69
2017-11-27T13:34:27.279Z,9.79
2017-11-27T13:36:53.223Z,9.72
2017-11-27T13:39:19.171Z,9.68
2017-11-27T13:41:45.117Z,9.69
2017-11-27T13:44:11.059Z,9.97
2017-11-27T13:46:37.106Z,9.77
2017-11-27T13:49:03.043Z,9.68
2017-11-27T13:51:28.970Z,9.70
2017-11-27T13:53:54.897Z,9.82
2017-11-27T13:56:20.862Z,9.73
2017-11-27T13:58:46.804Z,9.81
2017-11-27T14:01:12.733Z,9.67
2017-11-27T14:03:38.684Z,9.82
2017-11-27T14:06:04.617Z,9.78
2017-11-27T14:08:30.549Z,9.86
2017-11-27T14:10:56.474Z,9.64
2017-11-27T14:13:22.397Z,9.82
2017-11-27T14:15:48.326Z,9.77
2017-11-27T14:18:14.322Z,9.71
2017-11-27T14:20:40.271Z,9.73
2017-11-27T14:23:06.411Z,9.65
2017-11-27T14:25:32.357Z,9.69
2017-11-27T14:27:58.295Z,9.54
2017-11-27T14:30:24.243Z,9.60
2017-11-27T14:32:50.185Z,9.52
2017-11-27T14:35:16.133Z,9.49
2017-11-27T14:37:42.089Z,9.42
2017-11-27T14:40:09.102Z,9.79
2017-11-27T14:42:35.057Z,9.64
2017-11-27T14:45:01.042Z,9.57
2017-11-27T14:47:27.023Z,9.69
2017-11-27T14:49:52.968Z,9.74
2017-11-27T14:52:19.125Z,9.46
2017-11-27T14:54:45.074Z,10.01
2017-11-27T14:57:11.011Z,9.57
2017-11-27T14:59:36.966Z,9.43
2017-11-27T15:02:02.918Z,9.51
2017-11-27T15:04:28.865Z,9.94
2017-11-27T15:06:54.816Z,9.62
2017-11-27T15:09:20.747Z,9.60
2017-11-27T15:11:46.696Z,9.52
2017-11-27T15:14:12.682Z,9.70
2017-11-27T15:16:38.615Z,9.38
2017-11-27T15:19:04.563Z,9.64
2017-11-27T15:21:30.506Z,9.41
2017-11-27T15:23:56.452Z,9.54
2017-11-27T15:26:22.398Z,9.29
2017-11-27T15:28:48.345Z,9.51
2017-11-27T15:31:14.289Z,9.67
2017-11-27T15:33:40.223Z,9.87
2017-11-27T15:36:06.179Z,9.53
2017-11-27T15:38:32.123Z,9.54
2017-11-27T15:40:58.062Z,9.33
2017-11-27T15:43:24.009Z,9.23
2017-11-27T15:45:49.951Z,9.37
2017-11-27T15:48:15.877Z,9.48
2017-11-27T15:50:41.842Z,9.44
2017-11-27T15:53:07.782Z,9.26
2017-11-27T15:55:33.701Z,9.41
2017-11-27T15:57:59.630Z,9.62
2017-11-27T16:00:25.553Z,9.62
2017-11-27T16:02:51.497Z,9.58
2017-11-27T16:05:17.429Z,9.39
2017-11-27T16:07:43.370Z,9.52
2017-11-27T16:10:09.301Z,9.33
2017-11-27T16:12:35.246Z,9.45
2017-11-27T16:15:01.205Z,9.21
2017-11-27T16:17:27.146Z,9.41
2017-11-27T16:19:53.112Z,9.66
2017-11-27T16:22:19.077Z,9.29
2017-11-27T16:24:45.008Z,9.27
2017-11-27T16:27:10.948Z,9.05
2017-11-27T16:29:36.880Z,9.46
2017-11-27T16:32:03.013Z,9.51
2017-11-27T16:34:28.937Z,9.34
2017-11-27T16:36:54.872Z,9.34
2017-11-27T16:39:20.837Z,9.04
2017-11-27T16:41:46.761Z,9.26
2017-11-27T16:44:12.725Z,9.53
2017-11-27T16:46:38.673Z,9.28
2017-11-27T16:49:04.599Z,9.17
2017-11-27T16:51:30.639Z,9.15
2017-11-27T16:53:56.599Z,9.47
2017-11-27T16:56:22.565Z,9.33
2017-11-27T16:58:48.521Z,9.29
2017-11-27T17:01:14.467Z,9.19
2017-11-27T17:03:40.463Z,9.34
2017-11-27T17:06:06.411Z,9.23
2017-11-27T17:08:32.372Z,9.10
2017-11-27T17:10:58.297Z,9.10
2017-11-27T17:13:24.227Z,9.18
2017-11-27T17:15:50.198Z,9.16
2017-11-27T17:18:16.142Z,9.14
2017-11-27T17:20:42.087Z,8.91
2017-11-27T17:23:08.030Z,9.07
2017-11-27T17:25:33.983Z,9.18
2017-11-27T17:27:59.947Z,9.03
2017-11-27T17:30:25.883Z,9.07
2017-11-27T17:32:51.821Z,8.98
2017-11-27T17:35:17.793Z,9.05
2017-11-27T17:37:43.957Z,9.14
2017-11-27T17:40:09.900Z,9.14
2017-11-27T17:42:35.897Z,9.10
2017-11-27T17:45:01.861Z,9.01
2017-11-27T17:47:27.867Z,8.97
2017-11-27T17:49:53.837Z,9.09
2017-11-27T17:52:19.772Z,9.00
2017-11-27T17:54:45.729Z,9.06
2017-11-27T17:57:11.684Z,9.19
2017-11-27T17:59:37.628Z,8.97
2017-11-27T18:02:03.594Z,8.81
2017-11-27T18:04:29.556Z,8.87
2017-11-27T18:06:55.511Z,8.91
2017-11-27T18:09:21.509Z,8.83
2017-11-27T18:11:47.535Z,8.82
2017-11-27T18:14:13.493Z,8.69
2017-11-27T18:16:39.509Z,8.78
2017-11-27T18:19:05.501Z,8.70
2017-11-27T18:21:31.505Z,8.77
2017-11-27T18:23:57.470Z,8.87
2017-11-27T18:26:23.445Z,8.87
2017-11-27T18:28:49.437Z,8.93
2017-11-27T18:31:15.413Z,8.79
2017-11-27T18:33:41.383Z,8.87
2017-11-27T18:36:07.347Z,8.80
2017-11-27T18:38:33.342Z,8.88
2017-11-27T18:40:59.361Z,8.81
2017-11-27T18:43:25.314Z,8.86
2017-11-27T18:45:51.243Z,8.84
2017-11-27T18:48:17.190Z,8.73
2017-11-27T18:50:43.119Z,8.79
2017-11-27T18:53:09.067Z,8.90
2017-11-27T18:55:35.015Z,8.70
2017-11-27T18:58:00.969Z,8.74
2017-11-27T19:00:26.902Z,8.66
2017-11-27T19:02:52.862Z,8.75
2017-11-27T19:05:18.801Z,8.71
2017-11-27T19:07:44.930Z,8.78
2017-11-27T19:10:10.875Z,8.88
2017-11-27T19:12:36.825Z,9.02
2017-11-27T19:15:02.761Z,8.89
2017-11-27T19:17:28.695Z,8.83
2017-11-27T19:19:54.659Z,8.81
2017-11-27T19:22:20.731Z,8.81
2017-11-27T19:24:46.679Z,8.89
2017-11-27T19:27:12.644Z,8.71
2017-11-27T19:29:38.623Z,8.85
2017-11-27T19:32:04.609Z,8.89
2017-11-27T19:34:30.681Z,8.72
2017-11-27T19:36:56.662Z,8.77
2017-11-27T19:39:22.727Z,8.80
2017-11-27T19:41:48.665Z,8.81
2017-11-27T19:44:14.641Z,8.92
2017-11-27T19:46:40.604Z,8.87
2017-11-27T19:49:06.553Z,8.91
2017-11-27T19:51:32.516Z,8.80
2017-11-27T19:53:58.495Z,8.80
2017-11-27T19:56:24.635Z,8.77
2017-11-27T19:58:50.637Z,8.78
2017-11-27T20:01:16.717Z,8.81
2017-11-27T20:03:42.725Z,8.91
2017-11-27T20:06:08.697Z,9.04
2017-11-27T20:08:34.678Z,9.04
2017-11-27T20:11:00.687Z,8.94
2017-11-27T20:13:26.688Z,9.14
2017-11-27T20:15:52.682Z,9.07
2017-11-27T20:18:18.692Z,9.06
2017-11-27T20:20:44.863Z,9.12
2017-11-27T20:23:10.797Z,8.91
2017-11-27T20:25:36.741Z,8.80
2017-11-27T20:28:02.718Z,8.88
2017-11-27T20:30:28.692Z,8.86
2017-11-27T20:32:54.654Z,8.86
2017-11-27T20:35:20.592Z,8.88
2017-11-27T20:37:46.569Z,9.03
2017-11-27T20:40:12.533Z,9.01
2017-11-27T20:42:38.478Z,8.98
2017-11-27T20:45:04.461Z,9.04
2017-11-27T20:47:30.421Z,8.96
2017-11-27T20:49:56.369Z,9.18
2017-11-27T20:52:22.319Z,9.15
2017-11-27T20:54:48.297Z,9.02
2017-11-27T20:57:14.321Z,8.94
2017-11-27T20:59:40.403Z,9.17
2017-11-27T21:02:06.412Z,9.05
2017-11-27T21:04:32.435Z,9.21
2017-11-27T21:06:58.425Z,8.99
2017-11-27T21:09:24.387Z,9.06
2017-11-27T21:11:50.329Z,8.98
2017-11-27T21:14:16.521Z,9.16
2017-11-27T21:16:42.461Z,8.93
2017-11-27T21:19:08.403Z,8.90
2017-11-27T21:21:34.353Z,8.84
2017-11-27T21:24:00.302Z,8.97
2017-11-27T21:26:26.235Z,9.13
2017-11-27T21:28:52.186Z,8.91
2017-11-27T21:31:18.138Z,8.96
2017-11-27T21:33:44.289Z,8.89
2017-11-27T21:36:10.223Z,8.84
2017-11-27T21:38:36.169Z,8.81
2017-11-27T21:41:02.190Z,9.12
2017-11-27T21:43:28.165Z,8.99
2017-11-27T21:45:54.116Z,9.15
2017-11-27T21:48:20.081Z,8.98
2017-11-27T21:50:46.053Z,8.90
2017-11-27T21:53:12.026Z,9.05
2017-11-27T21:55:37.969Z,8.93
2017-11-27T21:58:04.170Z,8.95
2017-11-27T22:00:30.127Z,8.90
2017-11-27T22:02:56.064Z,9.02
2017-11-27T22:05:22.002Z,9.14
2017-11-27T22:07:47.935Z,9.00
2017-11-27T22:10:14.128Z,8.91
2017-11-27T22:12:40.094Z,8.93
2017-11-27T22:15:06.032Z,9.14
2017-11-27T22:17:31.965Z,9.09
2017-11-27T22:19:57.906Z,9.13
2017-11-27T22:22:23.963Z,9.11
2017-11-27T22:24:49.928Z,8.99
2017-11-27T22:27:15.851Z,9.02
2017-11-27T22:29:41.780Z,9.08
2017-11-27T22:32:07.708Z,9.07
2017-11-27T22:34:33.643Z,9.25
2017-11-27T22:36:59.599Z,9.18
2017-11-27T22:39:25.552Z,9.32
2017-11-27T22:41:51.485Z,9.22
2017-11-27T22:44:17.431Z,9.25
2017-11-27T22:46:43.361Z,9.18
2017-11-27T22:49:09.281Z,9.17
2017-11-27T22:51:35.261Z,9.13
2017-11-27T22:54:01.184Z,9.21
2017-11-27T22:56:27.114Z,9.26
2017-11-27T22:58:53.154Z,9.31
2017-11-27T23:01:19.133Z,9.44
2017-11-27T23:03:45.069Z,9.40
2017-11-27T23:06:11.004Z,9.38
2017-11-27T23:08:36.932Z,9.33
2017-11-27T23:11:02.869Z,9.40
2017-11-27T23:13:28.816Z,9.36
2017-11-27T23:15:54.758Z,9.43
2017-11-27T23:18:20.713Z,9.47
2017-11-27T23:20:46.644Z,9.51
2017-11-27T23:23:12.574Z,9.44
2017-11-27T23:25:38.501Z,9.41
2017-11-27T23:28:04.434Z,9.55
2017-11-27T23:30:30.376Z,9.50
2017-11-27T23:32:56.314Z,9.50
2017-11-27T23:35:22.271Z,9.47
2017-11-27T23:37:48.206Z,9.51
2017-11-27T23:40:14.139Z,9.46
2017-11-27T23:42:40.083Z,9.39
2017-11-27T23:45:06.053Z,9.57
2017-11-27T23:47:31.999Z,9.51
2017-11-27T23:49:57.930Z,9.56
2017-11-27T23:52:23.864Z,9.62
2017-11-27T23:54:49.811Z,9.60
2017-11-27T23:57:15.741Z,9.58
2017-11-27T23:59:41.678Z,9.62
